NKS3CM KFLL-KATL
Flight info
| Callsign | NKS3CM |
|---|---|
| Flight time | N/A |
| Altitude | 38000 |
| Route | FRSBE2 STYMY Q77 SHRKS LAIRI LARZZ JJEDI4 |
| Aircraft | A20N/M-SDE2E3FGHIRWXY/LB1 |
Departure
| Time | 2026-05-03 23:11 |
|---|---|
| Airport | Fort Lauderdale Hollywood International Airport (KFLL) |
Arrival
| Time | N/A |
|---|---|
| Airport | Hartsfield Jackson Atlanta International Airport (KATL) |
| Time | Latitude | Longitude | Altitude | Speed | Heading |
|---|---|---|---|---|---|
| 2026-05-03 21:50 | 26.06882 | -80.14384 | 19 ft | 0 kts | 3° |
| 2026-05-03 22:03 | 26.06866 | -80.14385 | 30 ft | 5 kts | 3° |
| 2026-05-03 22:03 | 26.06834 | -80.14385 | 20 ft | 3 kts | 351° |
| 2026-05-03 22:03 | 26.06821 | -80.14378 | 20 ft | 2 kts | 296° |
| 2026-05-03 22:03 | 26.06819 | -80.14365 | 21 ft | 2 kts | 274° |
| 2026-05-03 22:04 | 26.06818 | -80.14360 | 20 ft | 0 kts | 272° |
| 2026-05-03 22:08 | 26.06818 | -80.14361 | 19 ft | 0 kts | 272° |
| 2026-05-03 22:08 | 26.06819 | -80.14381 | 19 ft | 0 kts | 272° |
| 2026-05-03 22:09 | 26.06818 | -80.14419 | 19 ft | 8 kts | 267° |
| 2026-05-03 22:10 | 26.06778 | -80.14592 | 19 ft | 12 kts | 233° |
| 2026-05-03 22:10 | 26.06765 | -80.14696 | 18 ft | 16 kts | 271° |
| 2026-05-03 22:10 | 26.06766 | -80.14828 | 18 ft | 19 kts | 270° |
| 2026-05-03 22:10 | 26.06766 | -80.14983 | 19 ft | 21 kts | 270° |
| 2026-05-03 22:11 | 26.06774 | -80.15109 | 19 ft | 14 kts | 295° |
| 2026-05-03 22:11 | 26.06866 | -80.15130 | 19 ft | 15 kts | 1° |
| 2026-05-03 22:11 | 26.06983 | -80.15129 | 19 ft | 18 kts | 0° |
| 2026-05-03 22:11 | 26.07116 | -80.15128 | 19 ft | 20 kts | 0° |
| 2026-05-03 22:12 | 26.07266 | -80.15127 | 19 ft | 20 kts | 1° |
| 2026-05-03 22:12 | 26.07408 | -80.15126 | 19 ft | 20 kts | 0° |
| 2026-05-03 22:12 | 26.07429 | -80.15126 | 19 ft | 0 kts | 0° |
| 2026-05-03 22:17 | 26.07430 | -80.15126 | 19 ft | 0 kts | 0° |
| 2026-05-03 22:28 | 26.07436 | -80.15126 | 19 ft | 3 kts | 359° |
| 2026-05-03 22:28 | 26.07469 | -80.15137 | 19 ft | 8 kts | 326° |
| 2026-05-03 22:28 | 26.07489 | -80.15218 | 19 ft | 15 kts | 268° |
| 2026-05-03 22:28 | 26.07489 | -80.15356 | 19 ft | 21 kts | 271° |
| 2026-05-03 22:29 | 26.07491 | -80.15525 | 19 ft | 23 kts | 270° |
| 2026-05-03 22:29 | 26.07493 | -80.15713 | 19 ft | 25 kts | 270° |
| 2026-05-03 22:29 | 26.07493 | -80.15913 | 19 ft | 22 kts | 270° |
| 2026-05-03 22:29 | 26.07493 | -80.15940 | 19 ft | 0 kts | 270° |
| 2026-05-03 22:30 | 26.07493 | -80.15941 | 19 ft | 0 kts | 270° |
| 2026-05-03 22:30 | 26.07493 | -80.15954 | 19 ft | 4 kts | 271° |
| 2026-05-03 22:30 | 26.07494 | -80.15958 | 19 ft | 2 kts | 271° |
| 2026-05-03 22:31 | 26.07494 | -80.15968 | 19 ft | 0 kts | 271° |
| 2026-05-03 22:32 | 26.07494 | -80.15966 | 19 ft | 0 kts | 271° |
| 2026-05-03 22:32 | 26.07494 | -80.15975 | 19 ft | 4 kts | 270° |
| 2026-05-03 22:32 | 26.07494 | -80.16025 | 19 ft | 6 kts | 270° |
| 2026-05-03 22:33 | 26.07494 | -80.16032 | 19 ft | 0 kts | 270° |
| 2026-05-03 22:33 | 26.07494 | -80.16037 | 19 ft | 0 kts | 271° |
| 2026-05-03 22:35 | 26.07494 | -80.16039 | 19 ft | 2 kts | 271° |
| 2026-05-03 22:35 | 26.07495 | -80.16060 | 19 ft | 4 kts | 272° |
| 2026-05-03 22:36 | 26.07496 | -80.16086 | 19 ft | 0 kts | 270° |
| 2026-05-03 22:39 | 26.07496 | -80.16092 | 19 ft | 3 kts | 269° |
| 2026-05-03 22:39 | 26.07495 | -80.16131 | 19 ft | 5 kts | 270° |
| 2026-05-03 22:39 | 26.07495 | -80.16132 | 19 ft | 0 kts | 270° |
| 2026-05-03 22:39 | 26.07495 | -80.16136 | 19 ft | 0 kts | 270° |
| 2026-05-03 22:40 | 26.07495 | -80.16168 | 19 ft | 10 kts | 270° |
| 2026-05-03 22:41 | 26.07495 | -80.16246 | 19 ft | 7 kts | 270° |
| 2026-05-03 22:41 | 26.07495 | -80.16253 | 19 ft | 0 kts | 270° |
| 2026-05-03 22:45 | 26.07495 | -80.16254 | 19 ft | 1 kts | 270° |
| 2026-05-03 22:45 | 26.07495 | -80.16280 | 19 ft | 4 kts | 269° |
| 2026-05-03 22:46 | 26.07495 | -80.16281 | 19 ft | 0 kts | 269° |
| 2026-05-03 22:49 | 26.07495 | -80.16302 | 19 ft | 7 kts | 268° |
| 2026-05-03 22:49 | 26.07495 | -80.16327 | 19 ft | 5 kts | 270° |
| 2026-05-03 22:49 | 26.07495 | -80.16392 | 19 ft | 12 kts | 270° |
| 2026-05-03 22:50 | 26.07496 | -80.16430 | 19 ft | 0 kts | 270° |
| 2026-05-03 22:50 | 26.07496 | -80.16436 | 19 ft | 0 kts | 269° |
| 2026-05-03 22:51 | 26.07496 | -80.16437 | 19 ft | 0 kts | 269° |
| 2026-05-03 22:55 | 26.07496 | -80.16443 | 19 ft | 0 kts | 269° |
| 2026-05-03 22:55 | 26.07496 | -80.16462 | 19 ft | 5 kts | 272° |
| 2026-05-03 22:55 | 26.07497 | -80.16493 | 19 ft | 2 kts | 270° |
| 2026-05-03 22:56 | 26.07497 | -80.16494 | 19 ft | 0 kts | 270° |
| 2026-05-03 22:56 | 26.07497 | -80.16498 | 19 ft | 4 kts | 270° |
| 2026-05-03 22:56 | 26.07497 | -80.16519 | 19 ft | 0 kts | 270° |
| 2026-05-03 22:59 | 26.07496 | -80.16555 | 19 ft | 8 kts | 269° |
| 2026-05-03 22:59 | 26.07496 | -80.16579 | 22 ft | 0 kts | 271° |
| 2026-05-03 23:00 | 26.07497 | -80.16601 | 14 ft | 4 kts | 278° |
| 2026-05-03 23:00 | 26.07503 | -80.16619 | 19 ft | 1 kts | 296° |
| 2026-05-03 23:04 | 26.07505 | -80.16621 | 19 ft | 3 kts | 302° |
| 2026-05-03 23:04 | 26.07530 | -80.16641 | 19 ft | 4 kts | 342° |
| 2026-05-03 23:04 | 26.07541 | -80.16643 | 19 ft | 0 kts | 353° |
| 2026-05-03 23:05 | 26.07550 | -80.16643 | 19 ft | 3 kts | 358° |
| 2026-05-03 23:06 | 26.07562 | -80.16643 | 19 ft | 3 kts | 359° |
| 2026-05-03 23:06 | 26.07583 | -80.16643 | 21 ft | 2 kts | 0° |
| 2026-05-03 23:06 | 26.07587 | -80.16643 | 20 ft | 0 kts | 0° |
| 2026-05-03 23:09 | 26.07589 | -80.16643 | 19 ft | 2 kts | 0° |
| 2026-05-03 23:09 | 26.07624 | -80.16643 | 20 ft | 8 kts | 0° |
| 2026-05-03 23:09 | 26.07687 | -80.16615 | 21 ft | 13 kts | 57° |
| 2026-05-03 23:10 | 26.07697 | -80.16558 | 21 ft | 0 kts | 92° |
| 2026-05-03 23:10 | 26.07692 | -80.16215 | 23 ft | 78 kts | 88° |
| 2026-05-03 23:10 | 26.07696 | -80.15363 | 19 ft | 140 kts | 90° |
| 2026-05-03 23:11 | 26.07690 | -80.14130 | 198 ft | 169 kts | 90° |
| 2026-05-03 23:11 | 26.07699 | -80.12853 | 854 ft | 164 kts | 88° |
| 2026-05-03 23:11 | 26.07766 | -80.11527 | 1299 ft | 176 kts | 88° |
| 2026-05-03 23:11 | 26.07894 | -80.10139 | 1771 ft | 192 kts | 81° |
| 2026-05-03 23:12 | 26.08125 | -80.09120 | 1970 ft | 218 kts | 72° |
| 2026-05-03 23:12 | 26.08817 | -80.07489 | 2286 ft | 250 kts | 48° |
| 2026-05-03 23:12 | 26.10287 | -80.06372 | 2717 ft | 265 kts | 19° |
| 2026-05-03 23:12 | 26.12637 | -80.05492 | 3700 ft | 273 kts | 14° |
| 2026-05-03 23:13 | 26.14461 | -80.04847 | 4425 ft | 276 kts | 13° |
| 2026-05-03 23:13 | 26.16334 | -80.04685 | 4861 ft | 269 kts | 345° |
| 2026-05-03 23:13 | 26.17546 | -80.05067 | 4960 ft | 267 kts | 336° |
| 2026-05-03 23:13 | 26.19255 | -80.05809 | 4998 ft | 268 kts | 335° |
| 2026-05-03 23:14 | 26.20992 | -80.06582 | 5001 ft | 270 kts | 335° |
| 2026-05-03 23:14 | 26.22572 | -80.07628 | 4997 ft | 263 kts | 310° |
| 2026-05-03 23:14 | 26.23446 | -80.09386 | 5271 ft | 262 kts | 289° |
| 2026-05-03 23:14 | 26.24042 | -80.11314 | 6076 ft | 263 kts | 288° |
| 2026-05-03 23:15 | 26.24637 | -80.13240 | 7029 ft | 262 kts | 288° |
| 2026-05-03 23:15 | 26.25259 | -80.15149 | 7904 ft | 265 kts | 289° |
| 2026-05-03 23:15 | 26.26105 | -80.17009 | 8711 ft | 272 kts | 297° |
| 2026-05-03 23:15 | 26.27102 | -80.18818 | 9553 ft | 276 kts | 298° |
| 2026-05-03 23:16 | 26.28142 | -80.20645 | 10296 ft | 283 kts | 298° |
| 2026-05-03 23:16 | 26.29234 | -80.22564 | 10642 ft | 303 kts | 298° |
| 2026-05-03 23:16 | 26.30383 | -80.24587 | 11125 ft | 315 kts | 298° |
| 2026-05-03 23:16 | 26.31557 | -80.26647 | 11766 ft | 320 kts | 298° |
| 2026-05-03 23:17 | 26.32754 | -80.28750 | 12446 ft | 323 kts | 298° |
| 2026-05-03 23:17 | 26.33961 | -80.30873 | 12886 ft | 325 kts | 298° |
| 2026-05-03 23:17 | 26.35172 | -80.33005 | 12997 ft | 326 kts | 297° |
| 2026-05-03 23:17 | 26.36388 | -80.35149 | 13194 ft | 329 kts | 297° |
| 2026-05-03 23:18 | 26.37616 | -80.37317 | 13903 ft | 332 kts | 297° |
| 2026-05-03 23:18 | 26.38849 | -80.39494 | 14660 ft | 332 kts | 297° |
| 2026-05-03 23:18 | 26.40061 | -80.41636 | 15386 ft | 334 kts | 297° |
| 2026-05-03 23:18 | 26.41321 | -80.43863 | 16113 ft | 336 kts | 297° |
| 2026-05-03 23:19 | 26.42557 | -80.46051 | 16826 ft | 339 kts | 297° |
| 2026-05-03 23:19 | 26.43821 | -80.48287 | 17523 ft | 342 kts | 296° |
| 2026-05-03 23:19 | 26.45089 | -80.50534 | 18209 ft | 344 kts | 296° |
| 2026-05-03 23:19 | 26.46371 | -80.52805 | 18800 ft | 347 kts | 296° |
| 2026-05-03 23:20 | 26.47657 | -80.55098 | 19382 ft | 349 kts | 295° |
| 2026-05-03 23:20 | 26.48960 | -80.57393 | 19958 ft | 358 kts | 304° |
| 2026-05-03 23:20 | 26.50961 | -80.59138 | 20514 ft | 378 kts | 326° |
| 2026-05-03 23:20 | 26.53526 | -80.59992 | 21075 ft | 398 kts | 346° |
| 2026-05-03 23:21 | 26.56319 | -80.60252 | 21656 ft | 403 kts | 348° |
| 2026-05-03 23:21 | 26.59102 | -80.60606 | 22196 ft | 403 kts | 344° |
| 2026-05-03 23:21 | 26.61838 | -80.61145 | 22737 ft | 404 kts | 341° |
| 2026-05-03 23:21 | 26.64584 | -80.61825 | 23264 ft | 406 kts | 339° |
| 2026-05-03 23:22 | 26.70080 | -80.63410 | 24195 ft | 410 kts | 337° |
| 2026-05-03 23:22 | 26.72834 | -80.64255 | 24646 ft | 412 kts | 336° |
| 2026-05-03 23:22 | 26.75601 | -80.65120 | 25098 ft | 413 kts | 336° |
| 2026-05-03 23:23 | 26.78375 | -80.65995 | 25547 ft | 415 kts | 336° |
| 2026-05-03 23:23 | 26.81156 | -80.66876 | 25995 ft | 417 kts | 336° |
| 2026-05-03 23:23 | 26.83916 | -80.67754 | 26417 ft | 419 kts | 335° |
| 2026-05-03 23:23 | 26.86723 | -80.68649 | 26847 ft | 420 kts | 335° |
| 2026-05-03 23:24 | 26.89539 | -80.69547 | 27272 ft | 422 kts | 335° |
| 2026-05-03 23:24 | 26.92355 | -80.70499 | 27673 ft | 422 kts | 334° |
| 2026-05-03 23:24 | 26.95138 | -80.71547 | 28088 ft | 422 kts | 332° |
| 2026-05-03 23:24 | 26.97910 | -80.72651 | 28470 ft | 423 kts | 332° |